sensor_id;sensor_type;location;lat;lon;timestamp;temperature;humidity
39189;DHT22;24915;50.858;4.376;2022-09-30T00:01:25;11.20;99.90
39189;DHT22;24915;50.858;4.376;2022-09-30T00:03:55;11.20;99.90
39189;DHT22;24915;50.858;4.376;2022-09-30T00:06:22;11.10;99.90
39189;DHT22;24915;50.858;4.376;2022-09-30T00:08:48;11.10;99.90
39189;DHT22;24915;50.858;4.376;2022-09-30T00:11:17;11.10;99.90
39189;DHT22;24915;50.858;4.376;2022-09-30T00:13:45;11.10;99.90
39189;DHT22;24915;50.858;4.376;2022-09-30T00:16:12;11.10;99.90
39189;DHT22;24915;50.858;4.376;2022-09-30T00:18:39;11.10;99.90
39189;DHT22;24915;50.858;4.376;2022-09-30T00:21:06;11.20;99.90
39189;DHT22;24915;50.858;4.376;2022-09-30T00:23:33;11.10;99.90
39189;DHT22;24915;50.858;4.376;2022-09-30T00:26:01;11.10;99.90
39189;DHT22;24915;50.858;4.376;2022-09-30T00:28:28;11.00;99.90
39189;DHT22;24915;50.858;4.376;2022-09-30T00:30:58;11.00;99.90
39189;DHT22;24915;50.858;4.376;2022-09-30T00:33:26;11.00;99.90
39189;DHT22;24915;50.858;4.376;2022-09-30T00:35:51;11.10;99.90
39189;DHT22;24915;50.858;4.376;2022-09-30T00:38:17;11.00;99.90
39189;DHT22;24915;50.858;4.376;2022-09-30T00:40:44;11.00;99.90
39189;DHT22;24915;50.858;4.376;2022-09-30T00:43:14;10.90;99.90
39189;DHT22;24915;50.858;4.376;2022-09-30T00:45:50;11.00;99.90
39189;DHT22;24915;50.858;4.376;2022-09-30T00:48:21;10.90;99.90
39189;DHT22;24915;50.858;4.376;2022-09-30T00:50:48;10.90;99.90
39189;DHT22;24915;50.858;4.376;2022-09-30T00:53:29;10.80;99.90
39189;DHT22;24915;50.858;4.376;2022-09-30T00:56:02;10.80;99.90
39189;DHT22;24915;50.858;4.376;2022-09-30T00:58:39;10.90;99.90
39189;DHT22;24915;50.858;4.376;2022-09-30T01:01:05;10.90;99.90
39189;DHT22;24915;50.858;4.376;2022-09-30T01:03:45;10.90;99.90
39189;DHT22;24915;50.858;4.376;2022-09-30T01:06:15;10.80;99.90
39189;DHT22;24915;50.858;4.376;2022-09-30T01:08:41;10.80;99.90
39189;DHT22;24915;50.858;4.376;2022-09-30T01:11:08;10.70;99.90
39189;DHT22;24915;50.858;4.376;2022-09-30T01:13:34;10.70;99.90
39189;DHT22;24915;50.858;4.376;2022-09-30T01:18:52;10.60;99.90
39189;DHT22;24915;50.858;4.376;2022-09-30T01:32:36;10.50;99.90
39189;DHT22;24915;50.858;4.376;2022-09-30T01:38:25;10.40;99.90
39189;DHT22;24915;50.858;4.376;2022-09-30T01:44:01;10.30;99.90
39189;DHT22;24915;50.858;4.376;2022-09-30T01:46:35;10.20;99.90
39189;DHT22;24915;50.858;4.376;2022-09-30T01:54:46;10.20;99.90
39189;DHT22;24915;50.858;4.376;2022-09-30T01:59:59;10.30;99.90
39189;DHT22;24915;50.858;4.376;2022-09-30T02:02:30;10.30;99.90
39189;DHT22;24915;50.858;4.376;2022-09-30T02:05:05;10.30;99.90
39189;DHT22;24915;50.858;4.376;2022-09-30T02:10:45;10.30;99.90
39189;DHT22;24915;50.858;4.376;2022-09-30T02:13:51;10.20;99.90
39189;DHT22;24915;50.858;4.376;2022-09-30T02:16:12;10.20;99.90
39189;DHT22;24915;50.858;4.376;2022-09-30T02:18:54;10.20;99.90
39189;DHT22;24915;50.858;4.376;2022-09-30T02:21:29;10.20;99.90
39189;DHT22;24915;50.858;4.376;2022-09-30T02:24:01;10.20;99.90
39189;DHT22;24915;50.858;4.376;2022-09-30T02:26:36;10.20;99.90
39189;DHT22;24915;50.858;4.376;2022-09-30T02:29:19;10.10;99.90
39189;DHT22;24915;50.858;4.376;2022-09-30T02:31:51;10.00;99.90
39189;DHT22;24915;50.858;4.376;2022-09-30T02:34:22;9.90;99.90
39189;DHT22;24915;50.858;4.376;2022-09-30T02:36:56;9.90;99.90
39189;DHT22;24915;50.858;4.376;2022-09-30T02:39:31;9.90;99.90
39189;DHT22;24915;50.858;4.376;2022-09-30T02:42:06;9.90;99.90
39189;DHT22;24915;50.858;4.376;2022-09-30T02:44:35;9.90;99.90
39189;DHT22;24915;50.858;4.376;2022-09-30T02:47:14;9.90;99.90
39189;DHT22;24915;50.858;4.376;2022-09-30T02:50:19;9.90;99.90
39189;DHT22;24915;50.858;4.376;2022-09-30T02:53:49;10.00;99.90
39189;DHT22;24915;50.858;4.376;2022-09-30T02:59:03;9.90;99.90
39189;DHT22;24915;50.858;4.376;2022-09-30T03:01:30;10.00;99.90
39189;DHT22;24915;50.858;4.376;2022-09-30T03:04:03;9.90;99.90
39189;DHT22;24915;50.858;4.376;2022-09-30T03:06:30;9.90;99.90
39189;DHT22;24915;50.858;4.376;2022-09-30T03:08:56;9.90;99.90
39189;DHT22;24915;50.858;4.376;2022-09-30T03:11:24;9.90;99.90
39189;DHT22;24915;50.858;4.376;2022-09-30T03:19:52;9.90;99.90
39189;DHT22;24915;50.858;4.376;2022-09-30T03:25:13;10.00;99.90
39189;DHT22;24915;50.858;4.376;2022-09-30T03:36:42;10.00;99.90
39189;DHT22;24915;50.858;4.376;2022-09-30T03:39:48;10.00;99.90
39189;DHT22;24915;50.858;4.376;2022-09-30T03:42:42;10.10;99.90
39189;DHT22;24915;50.858;4.376;2022-09-30T03:45:22;10.00;99.90
39189;DHT22;24915;50.858;4.376;2022-09-30T03:47:52;10.00;99.90
39189;DHT22;24915;50.858;4.376;2022-09-30T03:50:21;10.00;99.90
39189;DHT22;24915;50.858;4.376;2022-09-30T03:52:49;10.00;99.90
39189;DHT22;24915;50.858;4.376;2022-09-30T03:55:16;10.00;99.90
39189;DHT22;24915;50.858;4.376;2022-09-30T03:57:44;10.00;99.90
39189;DHT22;24915;50.858;4.376;2022-09-30T04:00:11;10.00;99.90
39189;DHT22;24915;50.858;4.376;2022-09-30T04:02:37;10.00;99.90
39189;DHT22;24915;50.858;4.376;2022-09-30T04:05:04;9.90;99.90
39189;DHT22;24915;50.858;4.376;2022-09-30T04:07:30;9.90;99.90
39189;DHT22;24915;50.858;4.376;2022-09-30T04:09:56;9.80;99.90
39189;DHT22;24915;50.858;4.376;2022-09-30T04:12:22;9.70;99.90
39189;DHT22;24915;50.858;4.376;2022-09-30T04:14:47;9.60;99.90
39189;DHT22;24915;50.858;4.376;2022-09-30T04:17:13;9.60;99.90
39189;DHT22;24915;50.858;4.376;2022-09-30T04:19:39;9.60;99.90
39189;DHT22;24915;50.858;4.376;2022-09-30T04:22:06;9.60;99.90
39189;DHT22;24915;50.858;4.376;2022-09-30T04:24:32;9.60;99.90
39189;DHT22;24915;50.858;4.376;2022-09-30T04:26:58;9.50;99.90
39189;DHT22;24915;50.858;4.376;2022-09-30T04:29:24;9.50;99.90
39189;DHT22;24915;50.858;4.376;2022-09-30T04:31:50;9.50;99.90
39189;DHT22;24915;50.858;4.376;2022-09-30T04:34:15;9.40;99.90
39189;DHT22;24915;50.858;4.376;2022-09-30T04:36:41;9.40;99.90
39189;DHT22;24915;50.858;4.376;2022-09-30T04:39:07;9.40;99.90
39189;DHT22;24915;50.858;4.376;2022-09-30T04:41:32;9.30;99.90
39189;DHT22;24915;50.858;4.376;2022-09-30T04:43:59;9.30;99.90
39189;DHT22;24915;50.858;4.376;2022-09-30T04:46:25;9.40;99.90
39189;DHT22;24915;50.858;4.376;2022-09-30T04:48:51;9.40;99.90
39189;DHT22;24915;50.858;4.376;2022-09-30T04:51:19;9.30;99.90
39189;DHT22;24915;50.858;4.376;2022-09-30T04:53:46;9.40;99.90
39189;DHT22;24915;50.858;4.376;2022-09-30T04:56:12;9.30;99.90
39189;DHT22;24915;50.858;4.376;2022-09-30T04:58:39;9.30;99.90
39189;DHT22;24915;50.858;4.376;2022-09-30T05:01:13;9.40;99.90
39189;DHT22;24915;50.858;4.376;2022-09-30T05:03:39;9.30;99.90
39189;DHT22;24915;50.858;4.376;2022-09-30T05:06:05;9.30;99.90
39189;DHT22;24915;50.858;4.376;2022-09-30T05:08:32;9.30;99.90
39189;DHT22;24915;50.858;4.376;2022-09-30T05:11:00;9.30;99.90
39189;DHT22;24915;50.858;4.376;2022-09-30T05:13:31;9.30;99.90
39189;DHT22;24915;50.858;4.376;2022-09-30T05:15:58;9.20;99.90
39189;DHT22;24915;50.858;4.376;2022-09-30T05:18:24;9.30;99.90
39189;DHT22;24915;50.858;4.376;2022-09-30T05:20:52;9.30;99.90
39189;DHT22;24915;50.858;4.376;2022-09-30T05:23:18;9.30;99.90
39189;DHT22;24915;50.858;4.376;2022-09-30T05:25:46;9.20;99.90
39189;DHT22;24915;50.858;4.376;2022-09-30T05:28:12;9.20;99.90
39189;DHT22;24915;50.858;4.376;2022-09-30T05:30:38;9.20;99.90
39189;DHT22;24915;50.858;4.376;2022-09-30T05:33:04;9.20;99.90
39189;DHT22;24915;50.858;4.376;2022-09-30T05:35:31;9.10;99.90
39189;DHT22;24915;50.858;4.376;2022-09-30T05:37:59;9.10;99.90
39189;DHT22;24915;50.858;4.376;2022-09-30T05:40:25;9.10;99.90
39189;DHT22;24915;50.858;4.376;2022-09-30T05:42:51;9.10;99.90
39189;DHT22;24915;50.858;4.376;2022-09-30T05:45:16;9.10;99.90
39189;DHT22;24915;50.858;4.376;2022-09-30T05:47:42;9.10;99.90
39189;DHT22;24915;50.858;4.376;2022-09-30T05:50:09;9.10;99.90
39189;DHT22;24915;50.858;4.376;2022-09-30T05:52:35;9.10;99.90
39189;DHT22;24915;50.858;4.376;2022-09-30T05:55:00;9.10;99.90
39189;DHT22;24915;50.858;4.376;2022-09-30T05:57:27;9.10;99.90
39189;DHT22;24915;50.858;4.376;2022-09-30T05:59:54;9.20;99.90
39189;DHT22;24915;50.858;4.376;2022-09-30T06:02:19;9.10;99.90
39189;DHT22;24915;50.858;4.376;2022-09-30T06:04:45;9.20;99.90
39189;DHT22;24915;50.858;4.376;2022-09-30T06:07:11;9.20;99.90
39189;DHT22;24915;50.858;4.376;2022-09-30T06:09:38;9.30;99.90
39189;DHT22;24915;50.858;4.376;2022-09-30T06:12:04;9.40;99.90
39189;DHT22;24915;50.858;4.376;2022-09-30T06:14:30;9.40;99.90
39189;DHT22;24915;50.858;4.376;2022-09-30T06:16:57;9.50;99.90
39189;DHT22;24915;50.858;4.376;2022-09-30T06:19:25;9.60;99.90
39189;DHT22;24915;50.858;4.376;2022-09-30T06:21:53;9.70;99.90
39189;DHT22;24915;50.858;4.376;2022-09-30T06:24:19;9.70;99.90
39189;DHT22;24915;50.858;4.376;2022-09-30T06:26:44;9.80;99.90
39189;DHT22;24915;50.858;4.376;2022-09-30T06:29:10;9.80;99.90
39189;DHT22;24915;50.858;4.376;2022-09-30T06:31:36;9.80;99.90
39189;DHT22;24915;50.858;4.376;2022-09-30T06:34:02;9.80;99.90
39189;DHT22;24915;50.858;4.376;2022-09-30T06:36:28;9.80;99.90
39189;DHT22;24915;50.858;4.376;2022-09-30T06:38:54;9.90;99.90
39189;DHT22;24915;50.858;4.376;2022-09-30T06:41:20;9.90;99.90
39189;DHT22;24915;50.858;4.376;2022-09-30T06:43:50;10.00;99.90
39189;DHT22;24915;50.858;4.376;2022-09-30T06:46:16;10.20;99.90
39189;DHT22;24915;50.858;4.376;2022-09-30T06:48:41;10.20;99.90
39189;DHT22;24915;50.858;4.376;2022-09-30T06:51:07;10.30;99.90
39189;DHT22;24915;50.858;4.376;2022-09-30T06:53:36;10.20;99.90
39189;DHT22;24915;50.858;4.376;2022-09-30T06:56:02;10.20;99.90
39189;DHT22;24915;50.858;4.376;2022-09-30T06:58:28;10.20;99.90
39189;DHT22;24915;50.858;4.376;2022-09-30T07:01:04;10.40;99.90
39189;DHT22;24915;50.858;4.376;2022-09-30T07:03:32;10.50;99.90
39189;DHT22;24915;50.858;4.376;2022-09-30T07:06:00;10.60;99.90
39189;DHT22;24915;50.858;4.376;2022-09-30T07:08:28;10.70;99.90
39189;DHT22;24915;50.858;4.376;2022-09-30T07:11:00;10.80;99.90
39189;DHT22;24915;50.858;4.376;2022-09-30T07:13:26;11.00;99.90
39189;DHT22;24915;50.858;4.376;2022-09-30T07:15:52;11.10;99.90
39189;DHT22;24915;50.858;4.376;2022-09-30T07:18:21;11.20;99.90
39189;DHT22;24915;50.858;4.376;2022-09-30T07:20:49;11.40;99.90
39189;DHT22;24915;50.858;4.376;2022-09-30T07:23:15;11.60;99.90
39189;DHT22;24915;50.858;4.376;2022-09-30T07:25:58;11.80;99.90
39189;DHT22;24915;50.858;4.376;2022-09-30T07:28:27;12.00;99.90
39189;DHT22;24915;50.858;4.376;2022-09-30T07:30:57;12.00;99.90
39189;DHT22;24915;50.858;4.376;2022-09-30T07:33:25;12.10;99.90
39189;DHT22;24915;50.858;4.376;2022-09-30T07:35:56;12.30;99.90
39189;DHT22;24915;50.858;4.376;2022-09-30T07:38:26;12.50;99.90
39189;DHT22;24915;50.858;4.376;2022-09-30T07:41:00;12.60;99.90
39189;DHT22;24915;50.858;4.376;2022-09-30T07:43:28;12.50;99.90
39189;DHT22;24915;50.858;4.376;2022-09-30T07:46:08;12.40;99.90
39189;DHT22;24915;50.858;4.376;2022-09-30T07:48:35;12.40;99.90
39189;DHT22;24915;50.858;4.376;2022-09-30T07:51:29;12.40;99.90
39189;DHT22;24915;50.858;4.376;2022-09-30T07:54:08;12.50;99.90
39189;DHT22;24915;50.858;4.376;2022-09-30T07:56:36;12.60;99.90
39189;DHT22;24915;50.858;4.376;2022-09-30T07:59:04;12.60;99.90
39189;DHT22;24915;50.858;4.376;2022-09-30T08:01:30;12.70;99.90
39189;DHT22;24915;50.858;4.376;2022-09-30T08:03:59;12.80;99.90
39189;DHT22;24915;50.858;4.376;2022-09-30T08:06:26;12.90;99.90
39189;DHT22;24915;50.858;4.376;2022-09-30T08:08:53;13.10;99.90
39189;DHT22;24915;50.858;4.376;2022-09-30T08:11:20;13.30;99.90
39189;DHT22;24915;50.858;4.376;2022-09-30T08:13:55;13.30;99.90
39189;DHT22;24915;50.858;4.376;2022-09-30T08:16:22;13.40;99.90
39189;DHT22;24915;50.858;4.376;2022-09-30T08:18:52;13.50;99.90
39189;DHT22;24915;50.858;4.376;2022-09-30T08:21:18;13.60;99.90
39189;DHT22;24915;50.858;4.376;2022-09-30T08:23:44;13.60;99.90
39189;DHT22;24915;50.858;4.376;2022-09-30T08:26:11;13.70;99.90
39189;DHT22;24915;50.858;4.376;2022-09-30T08:28:38;13.90;99.90
39189;DHT22;24915;50.858;4.376;2022-09-30T08:31:12;13.90;99.90
39189;DHT22;24915;50.858;4.376;2022-09-30T08:33:39;14.00;99.90
39189;DHT22;24915;50.858;4.376;2022-09-30T08:36:15;14.00;99.90
39189;DHT22;24915;50.858;4.376;2022-09-30T08:38:42;14.00;99.90
39189;DHT22;24915;50.858;4.376;2022-09-30T08:44:17;14.30;99.90
39189;DHT22;24915;50.858;4.376;2022-09-30T08:46:57;14.40;99.90
39189;DHT22;24915;50.858;4.376;2022-09-30T08:49:38;14.70;99.90
39189;DHT22;24915;50.858;4.376;2022-09-30T08:52:15;14.90;99.90
39189;DHT22;24915;50.858;4.376;2022-09-30T08:54:46;15.00;99.90
39189;DHT22;24915;50.858;4.376;2022-09-30T08:57:13;15.10;99.90
39189;DHT22;24915;50.858;4.376;2022-09-30T09:00:00;15.10;99.90
39189;DHT22;24915;50.858;4.376;2022-09-30T09:02:33;15.30;99.90
39189;DHT22;24915;50.858;4.376;2022-09-30T09:05:04;15.50;99.90
39189;DHT22;24915;50.858;4.376;2022-09-30T09:07:42;15.60;99.90
39189;DHT22;24915;50.858;4.376;2022-09-30T09:13:19;16.00;99.90
39189;DHT22;24915;50.858;4.376;2022-09-30T09:18:50;16.00;99.90
39189;DHT22;24915;50.858;4.376;2022-09-30T09:21:57;15.80;99.90
39189;DHT22;24915;50.858;4.376;2022-09-30T09:24:29;15.90;99.90
39189;DHT22;24915;50.858;4.376;2022-09-30T09:26:57;16.10;99.90
39189;DHT22;24915;50.858;4.376;2022-09-30T09:29:48;16.30;99.90
39189;DHT22;24915;50.858;4.376;2022-09-30T09:32:17;16.20;99.90
39189;DHT22;24915;50.858;4.376;2022-09-30T09:34:44;16.20;99.90
39189;DHT22;24915;50.858;4.376;2022-09-30T09:37:16;16.50;99.90
39189;DHT22;24915;50.858;4.376;2022-09-30T09:40:02;16.80;99.90
39189;DHT22;24915;50.858;4.376;2022-09-30T09:42:48;17.10;99.90
39189;DHT22;24915;50.858;4.376;2022-09-30T09:45:35;17.10;99.90
39189;DHT22;24915;50.858;4.376;2022-09-30T09:48:07;17.20;99.90
39189;DHT22;24915;50.858;4.376;2022-09-30T09:53:15;17.00;99.90
39189;DHT22;24915;50.858;4.376;2022-09-30T09:55:45;17.20;99.90
39189;DHT22;24915;50.858;4.376;2022-09-30T09:58:14;17.30;99.90
39189;DHT22;24915;50.858;4.376;2022-09-30T10:00:42;17.20;99.90
39189;DHT22;24915;50.858;4.376;2022-09-30T10:06:01;17.00;99.90
39189;DHT22;24915;50.858;4.376;2022-09-30T10:08:29;17.10;99.90
39189;DHT22;24915;50.858;4.376;2022-09-30T10:11:06;17.30;99.90
39189;DHT22;24915;50.858;4.376;2022-09-30T10:13:45;17.60;99.90
39189;DHT22;24915;50.858;4.376;2022-09-30T10:16:30;17.80;99.90
39189;DHT22;24915;50.858;4.376;2022-09-30T10:18:58;18.10;99.90
39189;DHT22;24915;50.858;4.376;2022-09-30T10:21:26;18.20;99.90
39189;DHT22;24915;50.858;4.376;2022-09-30T10:23:53;18.40;99.90
39189;DHT22;24915;50.858;4.376;2022-09-30T10:26:21;18.50;99.90
39189;DHT22;24915;50.858;4.376;2022-09-30T10:28:52;18.70;99.90
39189;DHT22;24915;50.858;4.376;2022-09-30T10:31:29;18.90;99.90
39189;DHT22;24915;50.858;4.376;2022-09-30T10:34:23;19.00;99.90
39189;DHT22;24915;50.858;4.376;2022-09-30T10:36:49;19.30;99.90
39189;DHT22;24915;50.858;4.376;2022-09-30T10:41:42;19.60;99.90
39189;DHT22;24915;50.858;4.376;2022-09-30T10:44:21;19.50;99.70
39189;DHT22;24915;50.858;4.376;2022-09-30T10:46:50;19.20;99.90
39189;DHT22;24915;50.858;4.376;2022-09-30T10:49:30;19.30;99.90
39189;DHT22;24915;50.858;4.376;2022-09-30T10:51:59;19.30;99.80
39189;DHT22;24915;50.858;4.376;2022-09-30T10:57:31;19.40;99.30
39189;DHT22;24915;50.858;4.376;2022-09-30T11:00:13;19.40;99.00
39189;DHT22;24915;50.858;4.376;2022-09-30T11:03:16;19.40;99.90
39189;DHT22;24915;50.858;4.376;2022-09-30T11:05:47;19.30;99.70
39189;DHT22;24915;50.858;4.376;2022-09-30T11:10:55;19.20;99.80
39189;DHT22;24915;50.858;4.376;2022-09-30T11:19:20;19.50;98.40
39189;DHT22;24915;50.858;4.376;2022-09-30T11:32:11;21.00;93.80
39189;DHT22;24915;50.858;4.376;2022-09-30T11:37:33;20.70;93.90
39189;DHT22;24915;50.858;4.376;2022-09-30T11:40:29;20.70;94.70
39189;DHT22;24915;50.858;4.376;2022-09-30T11:43:00;20.60;92.70
39189;DHT22;24915;50.858;4.376;2022-09-30T11:48:39;19.50;94.40
39189;DHT22;24915;50.858;4.376;2022-09-30T11:51:10;19.20;95.10
39189;DHT22;24915;50.858;4.376;2022-09-30T11:56:56;19.20;95.70
39189;DHT22;24915;50.858;4.376;2022-09-30T12:05:17;19.10;95.60
39189;DHT22;24915;50.858;4.376;2022-09-30T12:08:15;18.70;96.70
39189;DHT22;24915;50.858;4.376;2022-09-30T12:11:13;18.60;97.10
39189;DHT22;24915;50.858;4.376;2022-09-30T12:13:46;18.50;97.40
39189;DHT22;24915;50.858;4.376;2022-09-30T12:16:18;18.50;97.10
39189;DHT22;24915;50.858;4.376;2022-09-30T12:22:13;19.50;96.90
39189;DHT22;24915;50.858;4.376;2022-09-30T12:24:41;20.10;95.60
39189;DHT22;24915;50.858;4.376;2022-09-30T12:27:31;20.20;95.10
39189;DHT22;24915;50.858;4.376;2022-09-30T12:30:04;20.40;95.20
39189;DHT22;24915;50.858;4.376;2022-09-30T12:33:05;20.70;94.00
39189;DHT22;24915;50.858;4.376;2022-09-30T12:36:24;20.50;94.40
39189;DHT22;24915;50.858;4.376;2022-09-30T12:49:13;19.40;95.00
39189;DHT22;24915;50.858;4.376;2022-09-30T12:51:43;19.30;95.60
39189;DHT22;24915;50.858;4.376;2022-09-30T12:56:45;19.80;95.20
39189;DHT22;24915;50.858;4.376;2022-09-30T12:59:13;19.90;94.90
39189;DHT22;24915;50.858;4.376;2022-09-30T13:01:40;20.30;94.90
39189;DHT22;24915;50.858;4.376;2022-09-30T13:11:40;20.90;93.00
39189;DHT22;24915;50.858;4.376;2022-09-30T13:19:43;20.30;93.20
39189;DHT22;24915;50.858;4.376;2022-09-30T13:27:34;19.70;94.70
39189;DHT22;24915;50.858;4.376;2022-09-30T13:30:02;19.60;94.70
39189;DHT22;24915;50.858;4.376;2022-09-30T13:35:33;19.70;94.00
39189;DHT22;24915;50.858;4.376;2022-09-30T13:40:50;19.10;94.90
39189;DHT22;24915;50.858;4.376;2022-09-30T13:43:37;18.70;95.40
39189;DHT22;24915;50.858;4.376;2022-09-30T13:46:13;18.30;96.20
39189;DHT22;24915;50.858;4.376;2022-09-30T13:48:48;18.00;96.80
39189;DHT22;24915;50.858;4.376;2022-09-30T13:51:17;17.80;97.00
39189;DHT22;24915;50.858;4.376;2022-09-30T13:53:47;17.80;97.50
39189;DHT22;24915;50.858;4.376;2022-09-30T13:56:24;18.40;97.00
39189;DHT22;24915;50.858;4.376;2022-09-30T13:59:10;18.80;96.30
39189;DHT22;24915;50.858;4.376;2022-09-30T14:01:57;19.10;96.00
39189;DHT22;24915;50.858;4.376;2022-09-30T14:04:49;19.40;95.70
39189;DHT22;24915;50.858;4.376;2022-09-30T14:10:19;20.20;93.90
39189;DHT22;24915;50.858;4.376;2022-09-30T14:13:09;20.40;93.50
39189;DHT22;24915;50.858;4.376;2022-09-30T14:15:44;20.20;93.40
39189;DHT22;24915;50.858;4.376;2022-09-30T14:23:34;20.70;92.70
39189;DHT22;24915;50.858;4.376;2022-09-30T14:26:24;22.80;90.40
39189;DHT22;24915;50.858;4.376;2022-09-30T14:29:33;23.60;85.90
39189;DHT22;24915;50.858;4.376;2022-09-30T14:32:10;25.20;80.70
39189;DHT22;24915;50.858;4.376;2022-09-30T14:34:36;25.00;79.60
39189;DHT22;24915;50.858;4.376;2022-09-30T14:37:03;24.30;79.70
39189;DHT22;24915;50.858;4.376;2022-09-30T14:39:30;22.50;84.90
39189;DHT22;24915;50.858;4.376;2022-09-30T14:41:59;21.80;86.90
39189;DHT22;24915;50.858;4.376;2022-09-30T14:44:29;22.10;86.10
39189;DHT22;24915;50.858;4.376;2022-09-30T14:46:56;21.10;88.80
39189;DHT22;24915;50.858;4.376;2022-09-30T14:49:28;21.60;87.10
39189;DHT22;24915;50.858;4.376;2022-09-30T14:51:59;22.90;83.30
39189;DHT22;24915;50.858;4.376;2022-09-30T14:54:27;24.40;79.70
39189;DHT22;24915;50.858;4.376;2022-09-30T14:56:54;26.00;75.80
39189;DHT22;24915;50.858;4.376;2022-09-30T14:59:23;26.80;72.60
39189;DHT22;24915;50.858;4.376;2022-09-30T15:01:54;25.30;73.00
39189;DHT22;24915;50.858;4.376;2022-09-30T15:04:30;24.60;75.00
39189;DHT22;24915;50.858;4.376;2022-09-30T15:06:57;24.60;74.30
39189;DHT22;24915;50.858;4.376;2022-09-30T15:09:35;22.70;79.10
39189;DHT22;24915;50.858;4.376;2022-09-30T15:12:15;21.00;85.10
39189;DHT22;24915;50.858;4.376;2022-09-30T15:14:50;20.00;88.90
39189;DHT22;24915;50.858;4.376;2022-09-30T15:17:19;19.40;90.20
39189;DHT22;24915;50.858;4.376;2022-09-30T15:19:45;18.90;91.50
39189;DHT22;24915;50.858;4.376;2022-09-30T15:22:12;19.10;91.30
39189;DHT22;24915;50.858;4.376;2022-09-30T15:24:39;19.30;90.90
39189;DHT22;24915;50.858;4.376;2022-09-30T15:27:05;19.20;91.00
39189;DHT22;24915;50.858;4.376;2022-09-30T15:29:35;19.20;90.50
39189;DHT22;24915;50.858;4.376;2022-09-30T15:32:13;18.70;91.00
39189;DHT22;24915;50.858;4.376;2022-09-30T15:34:42;18.30;92.00
39189;DHT22;24915;50.858;4.376;2022-09-30T15:37:22;18.10;92.20
39189;DHT22;24915;50.858;4.376;2022-09-30T15:39:48;17.90;92.80
39189;DHT22;24915;50.858;4.376;2022-09-30T15:42:37;17.80;92.90
39189;DHT22;24915;50.858;4.376;2022-09-30T15:45:18;17.50;93.50
39189;DHT22;24915;50.858;4.376;2022-09-30T15:47:57;17.40;94.30
39189;DHT22;24915;50.858;4.376;2022-09-30T15:55:43;17.10;94.90
39189;DHT22;24915;50.858;4.376;2022-09-30T15:58:32;17.00;95.00
39189;DHT22;24915;50.858;4.376;2022-09-30T16:09:06;16.80;95.60
39189;DHT22;24915;50.858;4.376;2022-09-30T16:11:36;16.70;95.80
39189;DHT22;24915;50.858;4.376;2022-09-30T16:14:08;16.70;95.90
39189;DHT22;24915;50.858;4.376;2022-09-30T16:16:36;16.70;96.20
39189;DHT22;24915;50.858;4.376;2022-09-30T16:19:04;16.70;96.20
39189;DHT22;24915;50.858;4.376;2022-09-30T16:21:38;16.60;96.40
39189;DHT22;24915;50.858;4.376;2022-09-30T16:26:53;16.40;96.90
39189;DHT22;24915;50.858;4.376;2022-09-30T16:29:20;16.40;97.10
39189;DHT22;24915;50.858;4.376;2022-09-30T16:31:48;16.40;97.40
39189;DHT22;24915;50.858;4.376;2022-09-30T16:34:20;16.30;97.40
39189;DHT22;24915;50.858;4.376;2022-09-30T16:36:46;16.30;97.60
39189;DHT22;24915;50.858;4.376;2022-09-30T16:39:14;16.20;97.70
39189;DHT22;24915;50.858;4.376;2022-09-30T16:41:41;16.20;97.90
39189;DHT22;24915;50.858;4.376;2022-09-30T16:44:08;16.10;97.90
39189;DHT22;24915;50.858;4.376;2022-09-30T16:46:34;16.00;97.90
39189;DHT22;24915;50.858;4.376;2022-09-30T16:49:13;16.00;98.10
39189;DHT22;24915;50.858;4.376;2022-09-30T16:51:39;16.00;98.10
39189;DHT22;24915;50.858;4.376;2022-09-30T16:54:05;15.90;98.10
39189;DHT22;24915;50.858;4.376;2022-09-30T16:56:30;15.90;98.40
39189;DHT22;24915;50.858;4.376;2022-09-30T16:58:56;15.90;98.40
39189;DHT22;24915;50.858;4.376;2022-09-30T17:01:23;15.80;98.50
39189;DHT22;24915;50.858;4.376;2022-09-30T17:03:53;15.80;98.60
39189;DHT22;24915;50.858;4.376;2022-09-30T17:06:28;15.80;98.80
39189;DHT22;24915;50.858;4.376;2022-09-30T17:08:54;15.70;98.80
39189;DHT22;24915;50.858;4.376;2022-09-30T17:11:27;15.70;98.90
39189;DHT22;24915;50.858;4.376;2022-09-30T17:13:55;15.70;98.80
39189;DHT22;24915;50.858;4.376;2022-09-30T17:16:21;15.70;99.00
39189;DHT22;24915;50.858;4.376;2022-09-30T17:18:48;15.70;98.90
39189;DHT22;24915;50.858;4.376;2022-09-30T17:21:17;15.60;99.00
39189;DHT22;24915;50.858;4.376;2022-09-30T17:23:43;15.60;98.90
39189;DHT22;24915;50.858;4.376;2022-09-30T17:26:10;15.60;98.70
39189;DHT22;24915;50.858;4.376;2022-09-30T17:28:36;15.50;98.80
39189;DHT22;24915;50.858;4.376;2022-09-30T17:31:02;15.50;98.70
39189;DHT22;24915;50.858;4.376;2022-09-30T17:33:32;15.50;98.90
39189;DHT22;24915;50.858;4.376;2022-09-30T17:36:05;15.40;98.90
39189;DHT22;24915;50.858;4.376;2022-09-30T17:38:32;15.40;99.00
39189;DHT22;24915;50.858;4.376;2022-09-30T17:40:59;15.40;99.10
39189;DHT22;24915;50.858;4.376;2022-09-30T17:43:43;15.40;99.10
39189;DHT22;24915;50.858;4.376;2022-09-30T17:46:13;15.30;99.20
39189;DHT22;24915;50.858;4.376;2022-09-30T17:48:48;15.30;99.30
39189;DHT22;24915;50.858;4.376;2022-09-30T17:51:15;15.20;99.40
39189;DHT22;24915;50.858;4.376;2022-09-30T17:53:42;15.20;99.50
39189;DHT22;24915;50.858;4.376;2022-09-30T17:56:16;15.20;99.70
39189;DHT22;24915;50.858;4.376;2022-09-30T17:58:45;15.20;99.70
39189;DHT22;24915;50.858;4.376;2022-09-30T18:01:13;15.20;99.80
39189;DHT22;24915;50.858;4.376;2022-09-30T18:03:40;15.10;99.90
39189;DHT22;24915;50.858;4.376;2022-09-30T18:06:06;15.10;99.90
39189;DHT22;24915;50.858;4.376;2022-09-30T18:08:32;15.10;99.90
39189;DHT22;24915;50.858;4.376;2022-09-30T18:10:59;15.10;99.90
39189;DHT22;24915;50.858;4.376;2022-09-30T18:13:26;15.00;99.90
39189;DHT22;24915;50.858;4.376;2022-09-30T18:15:54;15.10;99.90
39189;DHT22;24915;50.858;4.376;2022-09-30T18:18:23;15.00;99.90
39189;DHT22;24915;50.858;4.376;2022-09-30T18:20:49;15.00;99.90
39189;DHT22;24915;50.858;4.376;2022-09-30T18:23:16;15.00;99.90
39189;DHT22;24915;50.858;4.376;2022-09-30T18:25:46;15.00;99.90
39189;DHT22;24915;50.858;4.376;2022-09-30T18:28:14;15.00;99.90
39189;DHT22;24915;50.858;4.376;2022-09-30T18:30:40;15.00;99.90
39189;DHT22;24915;50.858;4.376;2022-09-30T18:33:07;14.90;99.90
39189;DHT22;24915;50.858;4.376;2022-09-30T18:35:34;14.90;99.90
39189;DHT22;24915;50.858;4.376;2022-09-30T18:38:01;14.90;99.90
39189;DHT22;24915;50.858;4.376;2022-09-30T18:40:28;14.90;99.90
39189;DHT22;24915;50.858;4.376;2022-09-30T18:42:56;14.90;99.90
39189;DHT22;24915;50.858;4.376;2022-09-30T18:45:23;14.90;99.90
39189;DHT22;24915;50.858;4.376;2022-09-30T18:47:53;14.90;99.90
39189;DHT22;24915;50.858;4.376;2022-09-30T18:50:20;14.90;99.90
39189;DHT22;24915;50.858;4.376;2022-09-30T18:52:47;14.90;99.90